x

West Oregon - 275nm West Of Coos Bay, Or (46002) Wave Buoy

10:50am - Fri 26th Dec 2014 All times are UTC.

  • Sig Wave height 7.5ft
  • Peak Period 10s
  • Average Period 7s
  • Wind
    13mph, 16mph gusts
  • Sea Temp 56°f
  • Air Temp 53°f
  • Sea Pressure 1028.9mb

More Historic Weather Station data

Upgrade to MSW Pro to gain access to the past 30 days of data for over 8000 Wavebouys and Weather Stations around the globe.

Join Pro

Comparision Forecast

View Surf forecast
   
Fri 12/26 10:50am 7.5ft 10s 7s 13 16 mph 1028.9mb 56f 53f
9:50am 7.5ft 11s 7s 13 16 mph 1029mb 56f 52f
8:50am 8ft 10s 8s 9 13 mph 1029.2mb 56f 54f
7:50am 8ft 11s 7s 11 16 mph 1029.7mb 56f 54f
6:50am 8ft 13s 7s 11 13 mph 1029.6mb 56f 54f
5:50am 9ft 10s 8s 11 16 mph 1029.5mb 56f 54f
4:50am 9ft 10s 8s 11 13 mph 1029.3mb 56f 54f
3:50am 9ft 12s 8s 11 13 mph 1028.8mb 56f 54f
2:50am 9ft 13s 7s 13 16 mph 1029.1mb 56f 54f
1:50am 9ft 12s 8s 16 18 mph 1029.1mb 56f 54f
12:50am 9ft 11s 8s 13 18 mph 1029mb 56f 54f
Thu 12/25 11:50pm 10ft 13s 8s 18 22 mph 1029.2mb 56f 53f
10:50pm 8.5ft 11s 7s 18 22 mph 1029.3mb 56f 53f
9:50pm 9ft 14s 7s 16 18 mph 1029.3mb 56f 52f
8:50pm 9.5ft 11s 8s 16 18 mph 1029.4mb 56f 53f
7:50pm 9ft 10s 7s 13 18 mph 1030.1mb 56f 52f
6:50pm 11ft 11s 7s 18 25 mph 1030.4mb 56f 52f
5:50pm 11ft 10s 8s 18 22 mph 1030mb 56f 54f
4:50pm  -   -   -  16 18 mph 1029.4mb 56f 53f
3:50pm 11ft 11s 7s 20 25 mph 1028.9mb 56f 53f
2:50pm 11.5ft 12s 8s 16 20 mph 1028.7mb 56f 51f
1:50pm 11ft 12s 7s 20 29 mph 1028.7mb 56f 52f
12:50pm 12ft 11s 8s 20 25 mph 1029.3mb 56f 51f
11:50am 12ft 10s 8s 20 27 mph 1029.3mb 56f 53f
10:50am 13.5ft 12s 8s 20 22 mph 1028.9mb 56f 53f
9:50am 13ft 14s 8s 20 25 mph 1028.6mb 56f 53f
8:50am 13ft 11s 8s 22 27 mph 1028.6mb 56f 53f
7:50am 14ft 14s 8s 22 29 mph 1029.2mb 56f 51f
6:50am  -   -   -  20 27 mph 1029.3mb 56f 52f
5:50am 14.5ft 14s 8s 22 29 mph 1029.2mb 56f 53f
4:50am 13ft 14s 8s 22 27 mph 1029mb 56f 52f
3:50am 12.5ft 9s 8s 25 34 mph 1028.9mb 56f 52f
2:50am 13ft 12s 8s 25 29 mph 1028.5mb 56f 52f
1:50am 15ft 15s 8s 22 31 mph 1028.2mb 56f 53f
12:50am 14.5ft 14s 8s 27 36 mph 1028.1mb 56f 52f
Wed 12/24 11:50pm 14.5ft 15s 8s 25 31 mph 1027.6mb 56f 53f
10:50pm 12.5ft 15s 8s 25 36 mph 1027.1mb 56f 53f
9:50pm 15ft 15s 8s 22 29 mph 1027mb 56f 52f
8:50pm 15ft 15s 8s 27 34 mph 1026.4mb 56f 53f
7:50pm 14ft 8s 8s 25 31 mph 1026.4mb 56f 53f
6:50pm 14ft 16s 8s 25 31 mph 1026.6mb 56f 52f
5:50pm 15ft 16s 8s 27 36 mph 1025.7mb 56f 52f
4:50pm 14.5ft 12s 8s 29 34 mph 1024.2mb 56f 52f
3:50pm 13ft 16s 8s 31 36 mph 1023.4mb 56f 53f
2:50pm 14ft 16s 9s 27 36 mph 1022.6mb 56f 52f
1:50pm 14ft 15s 8s 25 31 mph 1022.1mb 56f 51f
12:50pm 14.5ft 16s 9s 27 31 mph 1021.4mb 56f 51f
11:50am  -   -   -  27 31 mph 1021.2mb 56f 50f
10:50am 14ft 16s 9s 22 27 mph 1021mb 56f 50f
9:50am  -   -   -  31 36 mph 1020.1mb 56f 50f
8:50am 11.5ft 13s 9s 25 31 mph 1019.9mb 56f 51f
7:50am 11.5ft 15s 10s 20 25 mph 1020.2mb 56f 51f
6:50am 12ft 16s 10s 20 22 mph 1020mb 56f 51f
5:50am 12ft 16s 10s 18 20 mph 1020.7mb 56f 51f
4:50am 11.5ft 16s 10s 18 20 mph 1020.8mb 56f 51f
3:50am 11.5ft 12s 10s 18 20 mph 1021.5mb 56f 53f
2:50am 10.5ft 15s 10s 11 16 mph 1021.7mb 56f 54f
1:50am 10.5ft 16s 10s 11 13 mph 1021.7mb 56f 55f
12:50am 10ft 16s 10s 11 13 mph 1021.7mb 56f 55f
Tue 12/23 11:50pm 11.5ft 16s 10s 13 18 mph 1021.8mb 57f 55f
10:50pm 12ft 16s 10s 16 20 mph 1021.7mb 57f 57f
9:50pm 12ft 16s 10s 16 18 mph 1022.3mb 56f 57f
8:50pm 11ft 16s 10s 16 18 mph 1023.1mb 56f 57f
7:50pm 12ft 17s 10s 16 18 mph 1024.1mb 56f 57f
5:50pm 12.5ft 17s 10s 16 18 mph 1024.7mb 56f 57f
4:50pm 11ft 16s 10s 16 18 mph 1024.3mb 56f 57f
3:50pm 11.5ft 17s 10s 16 18 mph 1024mb 56f 57f
2:50pm 11.5ft 16s 9s 13 16 mph 1024mb 56f 57f
1:50pm 11ft 17s 9s 13 18 mph 1023.8mb 56f 57f
12:50pm 11.5ft 17s 10s 16 20 mph 1023.8mb 56f 57f
11:50am 11.5ft 12s 9s 13 18 mph 1024.1mb 56f 57f
10:50am 10.5ft 12s 9s 18 22 mph 1024.4mb 56f 57f
9:50am 11ft 13s 9s 18 22 mph 1024.3mb 56f 57f
8:50am 11.5ft 13s 10s 20 25 mph 1024mb 56f 57f
7:50am 11.5ft 14s 10s 16 18 mph 1024.6mb 56f 57f
6:50am 10ft 14s 9s 13 16 mph 1025mb 56f 57f
5:50am 10.5ft 14s 9s 13 18 mph 1025mb 56f 57f
4:50am 11ft 14s 10s 13 16 mph 1025.3mb 56f 57f
3:50am 11ft 13s 9s 13 18 mph 1025.4mb 56f 57f
2:50am 10.5ft 13s 9s 13 16 mph 1025.1mb 56f 57f
1:50am 11ft 12s 9s 13 18 mph 1025.2mb 56f 57f
12:50am 11ft 15s 9s 16 20 mph 1024.6mb 56f 57f
Mon 12/22 11:50pm 11ft 14s 9s 13 18 mph 1024.8mb 56f 57f
10:50pm 10.5ft 12s 8s 13 18 mph 1024.8mb 56f 57f
9:50pm 9.5ft 12s 8s 13 18 mph 1025.3mb 56f 57f
8:50pm 10.5ft 12s 8s 16 18 mph 1025.8mb 56f 56f
7:50pm 11ft 13s 9s 16 20 mph 1026.5mb 56f 56f
6:50pm 11ft 13s 9s 16 20 mph 1027mb 56f 56f
5:50pm 11ft 13s 9s 16 18 mph 1026.6mb 56f 57f
4:50pm 10.5ft 14s 9s 11 13 mph 1026.2mb 56f 57f
3:50pm 11.5ft 13s 9s 9 11 mph 1026mb 56f 57f
2:50pm 11.5ft 14s 9s 9 13 mph 1025.8mb 56f 57f
1:50pm 12ft 12s 9s 11 13 mph 1025.6mb 56f 57f
12:50pm 12ft 11s 9s 11 13 mph 1025.3mb 56f 57f
11:50am 12.5ft 14s 9s 13 16 mph 1025.1mb 56f 57f